createdAt,value
2019-03-11T00:00:55.398Z,1.47
2019-03-11T00:03:27.100Z,1.43
2019-03-11T00:05:59.042Z,1.48
2019-03-11T00:08:30.304Z,1.45
2019-03-11T00:11:02.351Z,1.33
2019-03-11T00:13:34.076Z,1.28
2019-03-11T00:16:05.347Z,1.26
2019-03-11T00:18:37.515Z,1.29
2019-03-11T00:21:09.403Z,1.22
2019-03-11T00:23:40.961Z,1.13
2019-03-11T00:26:12.985Z,1.16
2019-03-11T00:28:44.748Z,1.20
2019-03-11T00:31:15.981Z,1.14
2019-03-11T00:33:47.955Z,1.17
2019-03-11T00:36:19.619Z,1.21
2019-03-11T00:38:50.909Z,1.19
2019-03-11T00:41:22.434Z,1.19
2019-03-11T00:43:53.734Z,1.17
2019-03-11T00:46:25.727Z,1.27
2019-03-11T00:48:57.428Z,1.23
2019-03-11T00:51:28.786Z,1.23
2019-03-11T00:54:00.363Z,1.22
2019-03-11T00:56:32.021Z,1.25
2019-03-11T00:59:03.681Z,1.28
2019-03-11T01:01:35.021Z,1.24
2019-03-11T01:04:06.361Z,1.22
2019-03-11T01:06:37.669Z,1.23
2019-03-11T01:09:09.731Z,1.22
2019-03-11T01:11:41.349Z,1.21
2019-03-11T01:14:12.953Z,1.20
2019-03-11T01:16:44.574Z,1.22
2019-03-11T01:19:15.918Z,1.20
2019-03-11T01:21:47.278Z,1.25
2019-03-11T01:24:18.911Z,1.25
2019-03-11T01:26:50.294Z,1.31
2019-03-11T01:29:21.870Z,1.34
2019-03-11T01:31:54.111Z,1.36
2019-03-11T01:34:25.464Z,1.32
2019-03-11T01:36:57.625Z,1.38
2019-03-11T01:39:29.597Z,1.43
2019-03-11T01:42:01.129Z,1.41
2019-03-11T01:44:32.437Z,1.42
2019-03-11T01:47:03.716Z,1.54
2019-03-11T01:49:35.035Z,1.58
2019-03-11T01:52:06.315Z,1.57
2019-03-11T01:54:39.237Z,1.65
2019-03-11T01:57:10.548Z,1.60
2019-03-11T01:59:42.194Z,1.59
2019-03-11T02:02:14.638Z,1.70
2019-03-11T02:04:45.940Z,1.63
2019-03-11T02:07:17.556Z,1.65
2019-03-11T02:09:48.887Z,1.71
2019-03-11T02:12:20.372Z,1.73
2019-03-11T02:14:52.142Z,1.70
2019-03-11T02:17:23.828Z,1.80
2019-03-11T02:19:55.148Z,1.69
2019-03-11T02:22:26.801Z,1.63
2019-03-11T02:24:58.095Z,1.66
2019-03-11T02:27:29.780Z,1.68
2019-03-11T02:30:01.042Z,1.65
2019-03-11T02:32:32.296Z,1.62
2019-03-11T02:35:03.927Z,1.66
2019-03-11T02:37:35.232Z,1.68
2019-03-11T02:40:07.289Z,1.61
2019-03-11T02:42:38.913Z,1.60
2019-03-11T02:45:10.630Z,1.62
2019-03-11T02:47:42.310Z,1.65
2019-03-11T02:50:14.235Z,1.63
2019-03-11T02:52:45.849Z,1.64
2019-03-11T02:55:19.056Z,1.62
2019-03-11T02:57:50.806Z,1.58
2019-03-11T03:00:22.540Z,1.56
2019-03-11T03:03:10.938Z,1.53
2019-03-11T03:05:54.876Z,1.54
2019-03-11T03:08:26.134Z,1.55
2019-03-11T03:10:58.144Z,1.47
2019-03-11T03:13:29.667Z,1.49
2019-03-11T03:16:00.949Z,1.51
2019-03-11T03:18:32.256Z,1.46
2019-03-11T03:21:03.867Z,1.54
2019-03-11T03:23:35.204Z,1.51
2019-03-11T03:26:06.540Z,1.48
2019-03-11T03:28:37.895Z,1.58
2019-03-11T03:31:09.141Z,1.56
2019-03-11T03:33:40.841Z,1.61
2019-03-11T03:36:12.141Z,1.67
2019-03-11T03:38:43.406Z,1.74
2019-03-11T03:41:14.705Z,1.84
2019-03-11T03:43:46.301Z,1.81
2019-03-11T03:46:19.550Z,1.79
2019-03-11T03:48:51.768Z,1.77
2019-03-11T03:51:23.580Z,1.76
2019-03-11T03:53:54.847Z,1.76
2019-03-11T03:56:26.155Z,1.87
2019-03-11T03:58:57.412Z,1.84
2019-03-11T04:01:29.035Z,1.84
2019-03-11T04:04:00.676Z,1.83
2019-03-11T04:06:31.972Z,1.76
2019-03-11T04:09:03.322Z,1.80
2019-03-11T04:11:34.640Z,1.80
2019-03-11T04:14:05.922Z,1.75
2019-03-11T04:16:37.211Z,1.74
2019-03-11T04:19:08.485Z,1.77
2019-03-11T04:21:40.164Z,1.78
2019-03-11T04:24:12.282Z,1.75
2019-03-11T04:26:43.710Z,1.79
2019-03-11T04:29:15.344Z,1.77
2019-03-11T04:31:47.882Z,1.80
2019-03-11T04:34:19.537Z,1.87
2019-03-11T04:36:50.858Z,1.88
2019-03-11T04:39:23.130Z,1.93
2019-03-11T04:41:54.771Z,1.86
2019-03-11T04:44:26.071Z,2.03
2019-03-11T04:46:57.315Z,1.92
2019-03-11T04:49:28.931Z,1.90
2019-03-11T04:52:00.595Z,1.86
2019-03-11T04:54:32.290Z,1.91
2019-03-11T04:57:04.236Z,1.90
2019-03-11T04:59:36.128Z,1.87
2019-03-11T05:02:07.868Z,1.83
2019-03-11T05:04:39.561Z,1.84
2019-03-11T05:07:11.233Z,1.93
2019-03-11T05:09:42.404Z,1.83
2019-03-11T05:12:14.041Z,1.86
2019-03-11T05:14:45.773Z,1.89
2019-03-11T05:17:17.748Z,1.80
2019-03-11T05:19:49.118Z,1.78
2019-03-11T05:22:20.758Z,1.75
2019-03-11T05:24:52.131Z,1.75
2019-03-11T05:27:23.523Z,1.73
2019-03-11T05:29:56.378Z,1.72
2019-03-11T05:32:28.759Z,1.78
2019-03-11T05:35:01.051Z,1.72
2019-03-11T05:37:33.679Z,1.69
2019-03-11T05:40:05.349Z,1.67
2019-03-11T05:42:37.038Z,1.67
2019-03-11T05:45:10.631Z,1.63
2019-03-11T05:47:43.011Z,1.65
2019-03-11T05:50:15.831Z,1.62
2019-03-11T05:52:47.618Z,1.64
2019-03-11T05:55:21.157Z,1.57
2019-03-11T05:57:52.726Z,1.59
2019-03-11T06:00:27.271Z,1.58
2019-03-11T06:02:58.611Z,1.53
2019-03-11T06:05:30.576Z,1.53
2019-03-11T06:08:02.517Z,1.50
2019-03-11T06:10:34.167Z,1.53
2019-03-11T06:13:05.504Z,1.51
2019-03-11T06:15:36.809Z,1.47
2019-03-11T06:18:08.728Z,1.46
2019-03-11T06:20:53.365Z,1.47
2019-03-11T06:23:24.989Z,1.43
2019-03-11T06:25:57.019Z,1.43
2019-03-11T06:28:28.950Z,1.44
2019-03-11T06:31:00.310Z,1.45
2019-03-11T06:33:31.889Z,1.49
2019-03-11T06:36:03.776Z,1.49
2019-03-11T06:38:35.063Z,1.45
2019-03-11T06:41:06.682Z,1.48
2019-03-11T06:43:37.998Z,1.47
2019-03-11T06:46:09.379Z,1.49
2019-03-11T06:48:41.289Z,1.47
2019-03-11T06:51:12.908Z,1.53
2019-03-11T06:53:44.910Z,1.54
2019-03-11T06:56:16.888Z,1.63
2019-03-11T06:58:48.702Z,1.68
2019-03-11T07:01:21.301Z,1.71
2019-03-11T07:03:52.903Z,1.81
2019-03-11T07:06:24.510Z,1.85
2019-03-11T07:08:56.006Z,1.88
2019-03-11T07:11:27.672Z,1.93
2019-03-11T07:13:59.971Z,2.00
2019-03-11T07:16:31.507Z,2.05
2019-03-11T07:19:03.159Z,2.09
2019-03-11T07:21:34.837Z,2.13
2019-03-11T07:24:06.098Z,2.23
2019-03-11T07:26:37.944Z,2.19
2019-03-11T07:29:09.565Z,2.22
2019-03-11T07:31:41.477Z,2.27
2019-03-11T07:34:12.733Z,2.27
2019-03-11T07:36:44.363Z,2.22
2019-03-11T07:39:15.960Z,2.26
2019-03-11T07:41:47.322Z,2.30
2019-03-11T07:44:18.866Z,2.37
2019-03-11T07:46:50.218Z,2.40
2019-03-11T07:49:21.630Z,2.48
2019-03-11T07:51:52.915Z,2.53
2019-03-11T07:54:35.282Z,2.57
2019-03-11T07:56:58.617Z,2.65
2019-03-11T07:59:30.583Z,2.77
2019-03-11T08:02:01.950Z,2.76
2019-03-11T08:04:33.630Z,2.81
2019-03-11T08:07:05.225Z,2.81
2019-03-11T08:09:38.198Z,2.89
2019-03-11T08:12:09.829Z,2.98
2019-03-11T08:14:41.468Z,3.03
2019-03-11T08:17:13.050Z,3.12
2019-03-11T08:19:44.757Z,3.15
2019-03-11T08:22:16.021Z,3.17
2019-03-11T08:24:47.641Z,3.22
2019-03-11T08:27:19.171Z,3.24
2019-03-11T08:29:50.572Z,3.28
2019-03-11T08:32:22.472Z,3.29
2019-03-11T08:34:54.117Z,3.30
2019-03-11T08:37:25.812Z,3.31
2019-03-11T08:39:57.352Z,3.33
2019-03-11T08:42:28.775Z,3.32
2019-03-11T08:45:00.061Z,3.30
2019-03-11T08:47:31.354Z,3.35
2019-03-11T08:50:03.445Z,3.35
2019-03-11T08:52:34.757Z,3.35
2019-03-11T08:58:46.330Z,3.37
2019-03-11T09:01:17.866Z,3.36
2019-03-11T09:03:50.277Z,3.40
2019-03-11T09:06:21.983Z,3.41
2019-03-11T09:08:53.239Z,3.46
2019-03-11T09:11:24.615Z,3.46
2019-03-11T09:13:55.964Z,3.49
2019-03-11T09:16:28.804Z,3.54
2019-03-11T09:19:00.064Z,3.56
2019-03-11T09:21:33.306Z,3.57
2019-03-11T09:24:05.829Z,3.63
2019-03-11T09:26:37.052Z,3.64
2019-03-11T09:29:08.651Z,3.67
2019-03-11T09:31:39.908Z,3.73
2019-03-11T09:34:11.153Z,3.80
2019-03-11T09:36:42.474Z,3.89
2019-03-11T09:39:13.821Z,4.00
2019-03-11T09:41:45.099Z,4.02
2019-03-11T09:44:16.727Z,4.02
2019-03-11T09:46:48.304Z,4.08
2019-03-11T09:49:19.943Z,4.06
2019-03-11T09:51:51.285Z,4.15
2019-03-11T09:54:22.536Z,4.17
2019-03-11T09:56:53.794Z,4.10
2019-03-11T09:59:25.099Z,4.04
2019-03-11T10:01:56.689Z,4.00
2019-03-11T10:04:27.937Z,4.07
2019-03-11T10:06:59.242Z,4.04
2019-03-11T10:09:30.566Z,3.98
2019-03-11T10:12:01.827Z,4.04
2019-03-11T10:14:34.446Z,4.04
2019-03-11T10:17:05.811Z,3.96
2019-03-11T10:19:37.067Z,4.08
2019-03-11T10:22:08.640Z,4.13
2019-03-11T10:24:41.879Z,4.15
2019-03-11T10:27:13.044Z,4.23
2019-03-11T10:29:44.341Z,4.30
2019-03-11T10:32:17.933Z,4.28
2019-03-11T10:34:49.277Z,4.38
2019-03-11T10:37:20.581Z,4.38
2019-03-11T10:39:52.141Z,4.40
2019-03-11T10:42:23.715Z,4.53
2019-03-11T10:44:55.341Z,4.62
2019-03-11T10:47:26.592Z,4.68
2019-03-11T10:49:57.891Z,4.67
2019-03-11T10:52:29.260Z,4.75
2019-03-11T10:55:00.971Z,4.86
2019-03-11T10:57:32.559Z,4.77
2019-03-11T11:00:03.780Z,4.85
2019-03-11T11:02:35.130Z,4.75
2019-03-11T11:05:10.370Z,4.72
2019-03-11T11:07:41.966Z,4.68
2019-03-11T11:10:13.745Z,4.62
2019-03-11T11:12:45.248Z,4.60
2019-03-11T11:15:21.453Z,4.60
2019-03-11T11:17:52.482Z,4.74
2019-03-11T11:20:24.561Z,4.71
2019-03-11T11:22:55.959Z,4.67
2019-03-11T11:25:27.824Z,4.65
2019-03-11T11:27:59.517Z,4.65
2019-03-11T11:30:31.297Z,4.67
2019-03-11T11:33:02.689Z,4.71
2019-03-11T11:35:34.459Z,4.85
2019-03-11T11:38:06.419Z,4.88
2019-03-11T11:40:37.998Z,4.95
2019-03-11T11:43:10.025Z,4.83
2019-03-11T11:45:41.382Z,4.90
2019-03-11T11:48:13.159Z,4.82
2019-03-11T11:50:45.067Z,4.84
2019-03-11T11:53:16.409Z,4.84
2019-03-11T11:55:57.398Z,4.83
2019-03-11T11:58:21.188Z,4.85
2019-03-11T12:00:52.818Z,5.00
2019-03-11T12:03:24.695Z,5.00
2019-03-11T12:05:56.633Z,5.01
2019-03-11T12:08:28.533Z,5.05
2019-03-11T12:10:59.839Z,5.19
2019-03-11T12:13:31.464Z,5.35
2019-03-11T12:16:03.073Z,5.26
2019-03-11T12:18:34.318Z,5.27
2019-03-11T12:21:06.609Z,5.33
2019-03-11T12:23:45.955Z,5.25
2019-03-11T12:26:10.855Z,5.39
2019-03-11T12:28:42.103Z,5.35
2019-03-11T12:31:15.147Z,5.32
2019-03-11T12:33:46.806Z,5.37
2019-03-11T12:36:18.420Z,5.39
2019-03-11T12:38:49.752Z,5.44
2019-03-11T12:41:21.307Z,5.44
2019-03-11T12:43:52.848Z,5.40
2019-03-11T12:46:24.143Z,5.46
2019-03-11T12:48:55.756Z,5.47
2019-03-11T12:51:27.021Z,5.52
2019-03-11T12:53:58.662Z,5.56
2019-03-11T12:56:33.145Z,5.71
2019-03-11T12:59:04.437Z,5.73
2019-03-11T13:01:35.759Z,5.71
2019-03-11T13:04:07.023Z,5.73
2019-03-11T13:06:38.583Z,5.80
2019-03-11T13:09:10.914Z,5.81
2019-03-11T13:11:42.155Z,5.96
2019-03-11T13:14:13.441Z,5.96
2019-03-11T13:16:45.085Z,5.96
2019-03-11T13:19:16.321Z,5.98
2019-03-11T13:21:48.225Z,6.02
2019-03-11T13:24:20.182Z,6.03
2019-03-11T13:26:52.085Z,6.12
2019-03-11T13:29:23.673Z,6.14
2019-03-11T13:31:55.641Z,6.06
2019-03-11T13:34:29.136Z,6.02
2019-03-11T13:37:01.038Z,6.07
2019-03-11T13:39:32.345Z,6.03
2019-03-11T13:42:03.603Z,5.70
2019-03-11T13:44:34.912Z,5.69
2019-03-11T13:47:06.656Z,5.76
2019-03-11T13:49:37.844Z,5.61
2019-03-11T13:52:09.117Z,5.72
2019-03-11T13:54:40.674Z,5.78
2019-03-11T13:57:11.988Z,5.83
2019-03-11T13:59:43.221Z,5.82
2019-03-11T14:02:14.775Z,5.81
2019-03-11T14:04:46.091Z,5.77
2019-03-11T14:07:17.687Z,5.65
2019-03-11T14:09:49.006Z,5.67
2019-03-11T14:12:21.138Z,5.69
2019-03-11T14:14:52.806Z,5.68
2019-03-11T14:17:24.083Z,5.17
2019-03-11T14:19:55.848Z,5.17
2019-03-11T14:22:27.231Z,4.99
2019-03-11T14:24:58.466Z,4.99
2019-03-11T14:27:29.680Z,4.82
2019-03-11T14:30:03.931Z,4.83
2019-03-11T14:32:35.522Z,4.83
2019-03-11T14:35:07.549Z,4.75
2019-03-11T14:37:39.177Z,4.56
2019-03-11T14:40:11.454Z,4.33
2019-03-11T14:42:42.717Z,4.00
2019-03-11T14:45:16.156Z,3.43
2019-03-11T14:47:48.186Z,3.52
2019-03-11T14:50:19.741Z,3.56
2019-03-11T14:52:50.952Z,3.72
2019-03-11T14:55:23.399Z,3.69
2019-03-11T14:57:54.663Z,3.75
2019-03-11T15:00:26.221Z,3.69
2019-03-11T15:02:57.781Z,3.44
2019-03-11T15:05:29.062Z,3.47
2019-03-11T15:08:00.441Z,3.45
2019-03-11T15:10:31.751Z,3.34
2019-03-11T15:13:03.427Z,3.39
2019-03-11T15:15:34.670Z,3.28
2019-03-11T15:18:06.018Z,2.74
2019-03-11T15:20:37.615Z,2.72
2019-03-11T15:23:20.255Z,2.85
2019-03-11T15:25:46.071Z,2.77
2019-03-11T15:28:18.163Z,2.41
2019-03-11T15:30:49.829Z,2.46
2019-03-11T15:33:21.826Z,2.60
2019-03-11T15:35:53.223Z,2.56
2019-03-11T15:38:24.545Z,2.62
2019-03-11T15:40:56.894Z,2.82
2019-03-11T15:43:28.161Z,2.95
2019-03-11T15:45:59.455Z,2.90
2019-03-11T15:48:31.168Z,2.73
2019-03-11T15:51:02.494Z,2.88
2019-03-11T15:53:33.736Z,2.93
2019-03-11T15:56:05.044Z,2.92
2019-03-11T15:58:36.396Z,3.11
2019-03-11T16:01:07.947Z,3.17
2019-03-11T16:03:39.629Z,3.05
2019-03-11T16:06:10.986Z,2.99
2019-03-11T16:08:42.283Z,2.99
2019-03-11T16:11:13.632Z,3.13
2019-03-11T16:13:44.932Z,3.18
2019-03-11T16:16:16.233Z,3.23
2019-03-11T16:18:47.573Z,3.32
2019-03-11T16:21:19.018Z,3.35
2019-03-11T16:23:50.573Z,3.44
2019-03-11T16:26:22.151Z,3.41
2019-03-11T16:28:53.632Z,3.46
2019-03-11T16:31:24.941Z,3.40
2019-03-11T16:33:56.295Z,3.44
2019-03-11T16:36:27.754Z,3.30
2019-03-11T16:38:59.736Z,3.25
2019-03-11T16:41:31.399Z,3.23
2019-03-11T16:44:03.047Z,3.29
2019-03-11T16:46:34.652Z,3.29
2019-03-11T16:49:05.933Z,3.27
2019-03-11T16:51:37.469Z,3.27
2019-03-11T16:54:09.368Z,3.28
2019-03-11T16:56:40.698Z,3.36
2019-03-11T16:59:12.008Z,3.37
2019-03-11T17:01:43.354Z,3.28
2019-03-11T17:04:15.130Z,3.36
2019-03-11T17:06:46.658Z,3.34
2019-03-11T17:09:17.851Z,3.29
2019-03-11T17:11:49.203Z,3.27
2019-03-11T17:14:20.792Z,3.30
2019-03-11T17:16:52.753Z,3.35
2019-03-11T17:19:24.475Z,3.38
2019-03-11T17:21:56.155Z,3.39
2019-03-11T17:24:28.944Z,3.37
2019-03-11T17:27:00.971Z,3.36
2019-03-11T17:29:32.351Z,3.36
2019-03-11T17:32:03.950Z,3.38
2019-03-11T17:34:35.469Z,3.40
2019-03-11T17:37:07.310Z,3.38
2019-03-11T17:39:38.622Z,3.37
2019-03-11T17:42:10.116Z,3.37
2019-03-11T17:44:41.571Z,3.38
2019-03-11T17:47:13.325Z,3.37
2019-03-11T17:49:44.700Z,3.37
2019-03-11T17:52:16.189Z,3.37
2019-03-11T17:54:49.101Z,3.39
2019-03-11T17:57:20.826Z,3.41
2019-03-11T17:59:52.410Z,3.40
2019-03-11T18:02:24.498Z,3.40
2019-03-11T18:04:56.206Z,3.39
2019-03-11T18:07:28.072Z,3.41
2019-03-11T18:09:59.679Z,3.40
2019-03-11T18:12:30.972Z,3.43
2019-03-11T18:15:02.360Z,3.42
2019-03-11T18:17:34.497Z,3.45
2019-03-11T18:20:06.343Z,3.47
2019-03-11T18:22:37.966Z,3.46
2019-03-11T18:25:10.455Z,3.46
2019-03-11T18:27:41.804Z,3.49
2019-03-11T18:30:19.496Z,3.49
2019-03-11T18:32:51.041Z,3.49
2019-03-11T18:35:22.707Z,3.53
2019-03-11T18:38:03.630Z,3.52
2019-03-11T18:40:28.170Z,3.54
2019-03-11T18:43:02.374Z,3.53
2019-03-11T18:45:34.161Z,3.51
2019-03-11T18:48:08.902Z,3.51
2019-03-11T18:50:40.327Z,3.53
2019-03-11T18:53:11.644Z,3.53
2019-03-11T18:55:42.904Z,3.56
2019-03-11T18:58:14.421Z,3.54
2019-03-11T19:00:45.705Z,3.54
2019-03-11T19:03:17.163Z,3.52
2019-03-11T19:05:50.720Z,3.55
2019-03-11T19:08:22.374Z,3.53
2019-03-11T19:10:54.166Z,3.56
2019-03-11T19:13:25.840Z,3.50
2019-03-11T19:15:57.178Z,3.46
2019-03-11T19:18:28.465Z,3.47
2019-03-11T19:21:00.254Z,3.42
2019-03-11T19:23:32.172Z,3.42
2019-03-11T19:26:03.748Z,3.35
2019-03-11T19:28:35.860Z,3.32
2019-03-11T19:31:09.590Z,3.30
2019-03-11T19:33:40.980Z,3.25
2019-03-11T19:36:12.417Z,3.18
2019-03-11T19:38:43.952Z,3.13
2019-03-11T19:41:15.180Z,3.07
2019-03-11T19:43:46.837Z,3.05
2019-03-11T19:46:18.066Z,2.94
2019-03-11T19:48:53.089Z,2.91
2019-03-11T19:51:24.889Z,2.85
2019-03-11T19:53:56.370Z,2.83
2019-03-11T19:56:27.694Z,2.78
2019-03-11T19:59:01.045Z,2.73
2019-03-11T20:01:33.117Z,2.62
2019-03-11T20:04:05.856Z,2.59
2019-03-11T20:06:40.598Z,2.55
2019-03-11T20:09:14.801Z,2.50
2019-03-11T20:11:46.476Z,2.46
2019-03-11T20:14:18.504Z,2.43
2019-03-11T20:16:50.413Z,2.39
2019-03-11T20:19:28.261Z,2.41
2019-03-11T20:22:35.042Z,2.38
2019-03-11T20:25:10.276Z,2.45
2019-03-11T20:27:41.931Z,2.45
2019-03-11T20:30:18.726Z,2.47
2019-03-11T20:32:50.525Z,2.47
2019-03-11T20:35:22.012Z,2.44
2019-03-11T20:37:54.035Z,2.47
2019-03-11T20:40:25.393Z,2.48
2019-03-11T20:42:56.784Z,2.47
2019-03-11T20:45:28.961Z,2.49
2019-03-11T20:48:00.807Z,2.52
2019-03-11T20:50:41.425Z,2.55
2019-03-11T20:53:05.842Z,2.54
2019-03-11T20:55:37.635Z,2.56
2019-03-11T20:58:08.880Z,2.56
2019-03-11T21:00:40.313Z,2.59
2019-03-11T21:03:12.187Z,2.64
2019-03-11T21:05:44.097Z,2.62
2019-03-11T21:08:15.523Z,2.61
2019-03-11T21:10:47.119Z,2.61
2019-03-11T21:13:18.629Z,2.63
2019-03-11T21:15:50.374Z,2.64
2019-03-11T21:18:21.709Z,2.65
2019-03-11T21:21:04.192Z,2.69
2019-03-11T21:23:26.524Z,2.72
2019-03-11T21:25:58.526Z,2.72
2019-03-11T21:28:29.861Z,2.71
2019-03-11T21:31:01.265Z,2.76
2019-03-11T21:33:32.970Z,2.75
2019-03-11T21:36:04.838Z,2.77
2019-03-11T21:38:36.516Z,2.80
2019-03-11T21:41:07.849Z,2.81
2019-03-11T21:43:39.600Z,2.82
2019-03-11T21:46:13.981Z,2.83
2019-03-11T21:48:47.662Z,2.85
2019-03-11T21:51:18.988Z,2.88
2019-03-11T21:53:50.721Z,2.91
2019-03-11T21:56:22.041Z,2.90
2019-03-11T21:58:53.908Z,2.94
2019-03-11T22:01:25.683Z,2.96
2019-03-11T22:03:57.068Z,2.96
2019-03-11T22:06:30.673Z,2.96
2019-03-11T22:09:01.392Z,2.95
2019-03-11T22:11:33.539Z,2.96
2019-03-11T22:14:05.432Z,2.97
2019-03-11T22:16:37.108Z,2.97
2019-03-11T22:19:08.373Z,2.97
2019-03-11T22:21:42.262Z,2.97
2019-03-11T22:24:16.552Z,2.92
2019-03-11T22:26:48.506Z,2.92
2019-03-11T22:29:19.814Z,2.88
2019-03-11T22:31:51.535Z,2.86
2019-03-11T22:34:23.127Z,2.85
2019-03-11T22:36:56.018Z,2.90
2019-03-11T22:39:27.508Z,2.86
2019-03-11T22:41:58.749Z,2.89
2019-03-11T22:44:30.002Z,2.85
2019-03-11T22:47:01.581Z,2.87
2019-03-11T22:49:33.331Z,2.87
2019-03-11T22:52:05.213Z,2.85
2019-03-11T22:54:36.830Z,2.93
2019-03-11T22:57:08.107Z,2.91
2019-03-11T22:59:42.365Z,2.94
2019-03-11T23:02:16.099Z,2.91
2019-03-11T23:04:47.634Z,2.93
2019-03-11T23:07:18.895Z,2.93
2019-03-11T23:09:50.234Z,2.91
2019-03-11T23:12:22.072Z,2.92
2019-03-11T23:14:53.501Z,2.95
2019-03-11T23:17:25.100Z,2.94
2019-03-11T23:19:57.729Z,2.98
2019-03-11T23:22:29.261Z,3.00
2019-03-11T23:25:00.662Z,3.00
2019-03-11T23:27:35.027Z,3.03
2019-03-11T23:30:05.918Z,3.02
2019-03-11T23:32:37.770Z,3.04
2019-03-11T23:35:09.691Z,3.06
2019-03-11T23:37:41.242Z,3.07
2019-03-11T23:40:12.800Z,3.06
2019-03-11T23:42:46.896Z,3.06
2019-03-11T23:45:18.143Z,3.05
2019-03-11T23:47:49.798Z,3.09
2019-03-11T23:50:21.060Z,3.06
2019-03-11T23:52:52.317Z,3.05
2019-03-11T23:55:25.693Z,3.02
2019-03-11T23:57:56.922Z,3.05
